Time;durP1;ratioP1;P1;durP2;ratioP2;P2;SDS_P1;SDS_P2;PMS_P1;PMS_P2;Temp;Humidity;BMP_temperature;BMP_pressure;BME280_temperature;BME280_humidity;BME280_pressure;Samples;Min_cycle;Max_cycle;Signal;HPM_P1;HPM_P2
2021/03/16 00:01:21;;;;;;;9.80;3.50;;;9.10;72.70;;;;;;5093336;28;21041;-51
2021/03/16 00:03:49;;;;;;;5.90;4.13;;;9.10;72.80;;;;;;5093472;28;20691;-51
2021/03/16 00:06:16;;;;;;;11.37;4.40;;;9.10;73.30;;;;;;5093068;28;20631;-50
2021/03/16 00:08:43;;;;;;;11.93;5.03;;;9.00;73.60;;;;;;5092843;28;20664;-50
2021/03/16 00:11:09;;;;;;;10.93;5.73;;;9.00;73.90;;;;;;5093248;28;20684;-50
2021/03/16 00:13:36;;;;;;;8.20;5.27;;;9.00;74.30;;;;;;5072812;28;20653;-50
2021/03/16 00:16:03;;;;;;;8.53;4.90;;;9.00;74.10;;;;;;5072458;28;21205;-50
2021/03/16 00:18:30;;;;;;;8.93;6.53;;;9.00;73.70;;;;;;5072689;28;20665;-51
2021/03/16 00:20:57;;;;;;;6.40;3.90;;;9.00;73.50;;;;;;5072666;28;20685;-50
2021/03/16 00:23:24;;;;;;;7.83;4.63;;;9.00;73.20;;;;;;5083766;28;21114;-50
2021/03/16 00:25:51;;;;;;;6.17;4.30;;;9.10;73.30;;;;;;5093051;28;20662;-50
2021/03/16 00:28:18;;;;;;;8.17;4.03;;;9.10;73.30;;;;;;5092692;28;20697;-50
2021/03/16 00:30:44;;;;;;;11.97;4.50;;;9.20;73.30;;;;;;5093076;28;20687;-51
2021/03/16 00:33:11;;;;;;;9.30;4.73;;;9.20;72.80;;;;;;5092550;28;20718;-52
2021/03/16 00:35:38;;;;;;;6.53;3.73;;;9.20;72.90;;;;;;5093224;28;20677;-52
2021/03/16 00:38:06;;;;;;;5.63;3.57;;;9.20;72.90;;;;;;5090868;28;20636;-51
2021/03/16 00:40:33;;;;;;;13.80;6.43;;;9.30;73.10;;;;;;5092299;28;21208;-51
2021/03/16 00:42:59;;;;;;;8.43;4.10;;;9.30;73.20;;;;;;5091628;28;20660;-50
2021/03/16 00:45:26;;;;;;;9.30;5.60;;;9.30;73.50;;;;;;5092569;28;20656;-51
2021/03/16 00:47:53;;;;;;;8.43;4.37;;;9.30;73.70;;;;;;5092249;28;21002;-50
2021/03/16 00:50:20;;;;;;;5.90;4.40;;;9.30;73.60;;;;;;5092503;28;20694;-51
2021/03/16 00:52:46;;;;;;;8.50;5.03;;;9.30;74.40;;;;;;5092403;28;21023;-51
2021/03/16 00:55:14;;;;;;;6.67;4.00;;;9.30;75.10;;;;;;5092494;28;20660;-51
2021/03/16 00:57:41;;;;;;;6.57;4.53;;;9.30;75.70;;;;;;5092052;28;21207;-52
2021/03/16 01:00:08;;;;;;;5.83;4.70;;;9.30;74.80;;;;;;5092186;28;20687;-51
2021/03/16 01:02:35;;;;;;;7.90;4.03;;;9.40;75.30;;;;;;5092745;28;20648;-51
2021/03/16 01:05:03;;;;;;;7.83;4.13;;;9.30;74.80;;;;;;5092185;28;20699;-51
2021/03/16 01:07:29;;;;;;;9.07;4.33;;;9.20;75.30;;;;;;5091195;28;20672;-51
2021/03/16 01:09:56;;;;;;;7.60;4.07;;;9.20;75.70;;;;;;5092505;28;20691;-51
2021/03/16 01:12:24;;;;;;;7.10;3.93;;;9.20;75.70;;;;;;5091511;28;20679;-51
2021/03/16 01:14:50;;;;;;;7.60;4.20;;;9.20;76.00;;;;;;5091074;28;20620;-51
2021/03/16 01:17:17;;;;;;;10.40;4.30;;;9.20;76.00;;;;;;5092273;28;20644;-51
2021/03/16 01:19:44;;;;;;;7.13;3.93;;;9.10;76.80;;;;;;5091989;28;20691;-51
2021/03/16 01:22:11;;;;;;;8.80;4.07;;;9.10;78.10;;;;;;5092210;28;21202;-51
2021/03/16 01:24:38;;;;;;;8.10;4.37;;;9.00;78.30;;;;;;5092206;28;21075;-51
2021/03/16 01:27:05;;;;;;;4.10;3.20;;;9.00;78.60;;;;;;5091270;28;20661;-50
2021/03/16 01:29:32;;;;;;;5.73;3.73;;;9.00;77.40;;;;;;5091100;28;21000;-51
2021/03/16 01:31:59;;;;;;;6.33;4.13;;;8.90;77.70;;;;;;5091724;28;20635;-52
2021/03/16 01:34:26;;;;;;;8.83;4.13;;;8.90;78.20;;;;;;5091308;28;21234;-51
2021/03/16 01:36:53;;;;;;;11.00;4.20;;;8.80;78.30;;;;;;5092032;28;20655;-51
2021/03/16 01:39:19;;;;;;;6.43;3.77;;;8.80;78.40;;;;;;5091411;28;20761;-51
2021/03/16 01:41:46;;;;;;;7.97;3.37;;;8.80;78.00;;;;;;5091838;28;20687;-51
2021/03/16 01:44:13;;;;;;;9.93;3.77;;;8.80;77.90;;;;;;5092342;28;20692;-51
2021/03/16 01:46:41;;;;;;;6.00;3.77;;;8.80;78.10;;;;;;5092752;28;20673;-52
2021/03/16 01:49:07;;;;;;;8.50;3.70;;;8.80;78.00;;;;;;5091622;28;21197;-52
2021/03/16 01:51:34;;;;;;;4.33;3.53;;;8.80;77.80;;;;;;5091735;28;20676;-51
2021/03/16 01:54:01;;;;;;;5.70;3.67;;;8.80;77.40;;;;;;5091787;28;21212;-51
2021/03/16 01:56:28;;;;;;;6.23;3.50;;;8.80;77.40;;;;;;5091316;28;20671;-51
2021/03/16 01:58:55;;;;;;;10.83;3.60;;;8.80;77.90;;;;;;5091388;28;20982;-52
2021/03/16 02:01:22;;;;;;;9.30;3.00;;;8.70;77.90;;;;;;5090968;28;20691;-52
2021/03/16 02:03:51;;;;;;;7.27;3.60;;;8.70;78.20;;;;;;5091492;28;20687;-51
2021/03/16 02:06:20;;;;;;;6.30;2.80;;;8.60;78.60;;;;;;5091406;28;21265;-52
2021/03/16 02:08:49;;;;;;;8.13;3.40;;;8.70;79.10;;;;;;5091614;28;20632;-51
2021/03/16 02:11:19;;;;;;;9.90;4.13;;;8.70;79.50;;;;;;5090961;28;20698;-52
2021/03/16 02:13:50;;;;;;;5.90;4.57;;;8.50;79.70;;;;;;5091232;28;20656;-51
2021/03/16 02:16:18;;;;;;;9.37;3.60;;;8.50;80.10;;;;;;5091186;28;21204;-52
2021/03/16 02:18:46;;;;;;;11.17;5.50;;;8.60;80.30;;;;;;5090619;28;21215;-51
2021/03/16 02:21:15;;;;;;;4.73;3.60;;;8.70;80.30;;;;;;5091102;28;21095;-53
2021/03/16 02:24:19;;;;;;;9.13;3.57;;;8.70;79.80;;;;;;5091166;28;20691;-51
2021/03/16 02:26:51;;;;;;;6.00;4.10;;;8.80;79.50;;;;;;5071393;28;21006;-53
2021/03/16 02:29:19;;;;;;;9.10;3.93;;;8.80;78.90;;;;;;5070825;28;20670;-52
2021/03/16 02:31:52;;;;;;;9.60;4.00;;;8.90;78.90;;;;;;5070824;28;20680;-52
2021/03/16 02:34:19;;;;;;;8.63;3.90;;;8.90;78.80;;;;;;5086575;28;20627;-52
2021/03/16 02:36:45;;;;;;;4.97;3.43;;;8.90;78.30;;;;;;5090842;28;21191;-52
2021/03/16 02:39:12;;;;;;;9.90;4.70;;;8.90;77.90;;;;;;5091734;28;21220;-52
2021/03/16 02:41:40;;;;;;;6.10;3.27;;;8.90;77.80;;;;;;5094444;28;20685;-52
2021/03/16 02:44:06;;;;;;;14.73;3.80;;;8.80;77.70;;;;;;5095066;28;20691;-52
2021/03/16 02:46:34;;;;;;;6.37;3.33;;;8.70;77.90;;;;;;5094798;28;20627;-53
2021/03/16 02:49:01;;;;;;;9.10;4.40;;;8.70;77.90;;;;;;5094648;28;20623;-51
2021/03/16 02:51:28;;;;;;;7.50;3.43;;;8.70;77.80;;;;;;5094194;28;20701;-52
2021/03/16 02:53:54;;;;;;;4.17;3.40;;;8.80;77.90;;;;;;5095346;28;20646;-52
2021/03/16 02:56:21;;;;;;;6.93;3.20;;;8.80;77.50;;;;;;5094691;28;20628;-53
2021/03/16 02:58:48;;;;;;;8.57;3.70;;;8.70;76.60;;;;;;5094599;28;21016;-52
2021/03/16 03:01:15;;;;;;;4.97;2.83;;;8.60;76.60;;;;;;5094340;28;20690;-51
2021/03/16 03:03:44;;;;;;;9.67;4.13;;;8.60;77.40;;;;;;5094952;28;20741;-51
2021/03/16 03:06:12;;;;;;;8.47;3.67;;;8.60;78.00;;;;;;5094439;28;20655;-51
2021/03/16 03:08:39;;;;;;;6.50;3.30;;;8.60;78.00;;;;;;5094393;28;20664;-52
2021/03/16 03:11:06;;;;;;;5.17;3.00;;;8.60;77.70;;;;;;5093986;28;20647;-51
2021/03/16 03:13:32;;;;;;;11.73;4.47;;;8.60;78.40;;;;;;5094281;28;20664;-52
2021/03/16 03:15:59;;;;;;;8.90;4.10;;;8.50;77.60;;;;;;5093737;28;21180;-50
2021/03/16 03:18:26;;;;;;;10.03;4.00;;;8.50;77.50;;;;;;5094748;28;20680;-52
2021/03/16 03:20:54;;;;;;;21.77;5.03;;;8.50;78.20;;;;;;5093775;28;20663;-51
2021/03/16 03:23:22;;;;;;;6.80;3.33;;;8.50;78.50;;;;;;5093037;28;20627;-51
2021/03/16 03:25:52;;;;;;;7.50;3.27;;;8.50;77.90;;;;;;5094298;28;20983;-52
2021/03/16 03:28:21;;;;;;;5.17;3.43;;;8.60;77.80;;;;;;5074011;28;20652;-51
2021/03/16 03:30:48;;;;;;;6.30;3.87;;;8.60;78.00;;;;;;5074213;28;20695;-52
2021/03/16 03:33:15;;;;;;;5.23;3.07;;;8.60;77.20;;;;;;5085187;28;20654;-51
2021/03/16 03:35:42;;;;;;;9.03;4.20;;;8.60;77.30;;;;;;5094564;28;20655;-53
2021/03/16 03:38:09;;;;;;;7.37;3.20;;;8.60;77.20;;;;;;5094051;28;20663;-53
2021/03/16 03:40:36;;;;;;;8.87;4.60;;;8.60;77.40;;;;;;5094075;28;20698;-52
2021/03/16 03:43:04;;;;;;;8.57;2.80;;;8.60;77.70;;;;;;5092322;28;21021;-53
2021/03/16 03:45:31;;;;;;;7.90;3.10;;;8.60;78.00;;;;;;5093664;28;20718;-52
2021/03/16 03:47:59;;;;;;;7.10;3.23;;;8.60;77.70;;;;;;5093292;28;20631;-53
2021/03/16 03:50:26;;;;;;;8.83;3.77;;;8.60;77.40;;;;;;5092920;28;20654;-52
2021/03/16 03:52:53;;;;;;;5.73;3.83;;;8.60;77.70;;;;;;5093250;28;20659;-53
2021/03/16 03:55:20;;;;;;;12.90;4.50;;;8.60;78.80;;;;;;5093669;28;20646;-51
2021/03/16 03:57:47;;;;;;;8.50;3.50;;;8.60;78.10;;;;;;5093220;28;20667;-52
2021/03/16 04:00:15;;;;;;;11.47;4.37;;;8.60;78.20;;;;;;5093597;28;20691;-51
2021/03/16 04:02:42;;;;;;;7.10;4.17;;;8.60;78.30;;;;;;5093845;28;20666;-51
2021/03/16 04:05:11;;;;;;;5.30;3.70;;;8.60;78.40;;;;;;5093832;28;20691;-51
2021/03/16 04:07:38;;;;;;;10.23;4.60;;;8.60;78.40;;;;;;5093803;28;20659;-52
2021/03/16 04:10:05;;;;;;;8.53;3.83;;;8.60;78.70;;;;;;5092554;28;20718;-52
2021/03/16 04:12:33;;;;;;;10.30;4.27;;;8.60;78.90;;;;;;5073647;28;21042;-51
2021/03/16 04:15:00;;;;;;;14.80;5.70;;;8.60;79.20;;;;;;5074356;28;21210;-52
2021/03/16 04:17:27;;;;;;;13.03;4.90;;;8.50;79.20;;;;;;5072795;28;20621;-52
2021/03/16 04:19:54;;;;;;;13.00;5.00;;;8.50;79.00;;;;;;5073135;28;20668;-52
2021/03/16 04:22:21;;;;;;;11.50;4.60;;;8.40;79.20;;;;;;5072610;28;20982;-52
2021/03/16 04:24:49;;;;;;;8.10;4.93;;;8.40;79.60;;;;;;5080940;28;20688;-52
2021/03/16 04:27:15;;;;;;;6.03;4.50;;;8.40;79.70;;;;;;5092736;28;20640;-52
2021/03/16 04:29:43;;;;;;;10.03;4.83;;;8.40;79.80;;;;;;5092585;28;20676;-52
2021/03/16 04:32:10;;;;;;;12.63;5.07;;;8.40;79.90;;;;;;5093042;28;20659;-52
2021/03/16 04:34:36;;;;;;;8.73;5.00;;;8.40;80.00;;;;;;5092892;28;20664;-52
2021/03/16 04:37:03;;;;;;;22.37;5.53;;;8.30;79.80;;;;;;5093054;28;20654;-51
2021/03/16 04:39:30;;;;;;;7.70;5.23;;;8.20;80.00;;;;;;5091008;28;20708;-50
2021/03/16 04:41:57;;;;;;;12.80;5.00;;;8.20;80.60;;;;;;5092490;28;20670;-51
2021/03/16 04:44:23;;;;;;;9.13;5.33;;;8.10;80.30;;;;;;5092720;28;20680;-51
2021/03/16 04:46:51;;;;;;;11.13;5.77;;;8.10;80.70;;;;;;5092408;28;20624;-51
2021/03/16 04:49:18;;;;;;;11.97;6.30;;;8.10;80.80;;;;;;5092159;28;21384;-51
2021/03/16 04:51:45;;;;;;;7.10;5.63;;;8.20;80.90;;;;;;5093608;28;20655;-51
2021/03/16 04:54:11;;;;;;;6.00;4.87;;;8.20;80.90;;;;;;5094189;28;20624;-50
2021/03/16 04:56:38;;;;;;;7.97;5.43;;;8.20;81.60;;;;;;5092367;28;20652;-50
2021/03/16 04:59:05;;;;;;;9.37;5.40;;;8.30;80.30;;;;;;5092017;28;20646;-50
2021/03/16 05:01:32;;;;;;;11.40;4.50;;;8.30;80.30;;;;;;5091847;28;20942;-50
2021/03/16 05:03:59;;;;;;;9.83;6.00;;;8.30;80.00;;;;;;5092327;28;20670;-50
2021/03/16 05:06:26;;;;;;;12.40;5.90;;;8.30;80.40;;;;;;5092633;28;20621;-50
2021/03/16 05:08:53;;;;;;;9.53;5.03;;;8.40;80.90;;;;;;5091939;28;21006;-51
2021/03/16 05:11:19;;;;;;;14.07;5.50;;;8.40;80.70;;;;;;5092337;28;20663;-51
2021/03/16 05:13:46;;;;;;;11.03;5.67;;;8.40;80.40;;;;;;5092332;28;20630;-52
2021/03/16 05:16:13;;;;;;;9.03;5.13;;;8.40;80.20;;;;;;5091780;28;20651;-52
2021/03/16 05:18:40;;;;;;;11.80;5.13;;;8.30;80.30;;;;;;5091467;28;20678;-52
2021/03/16 05:21:07;;;;;;;9.17;5.17;;;8.30;80.90;;;;;;5092142;28;20679;-51
2021/03/16 05:23:34;;;;;;;13.43;6.37;;;8.20;81.70;;;;;;5091416;28;20666;-51
2021/03/16 05:26:01;;;;;;;8.97;4.67;;;8.20;81.70;;;;;;5091783;28;20698;-52
2021/03/16 05:28:27;;;;;;;14.67;7.53;;;8.20;82.00;;;;;;5091719;28;20680;-51
2021/03/16 05:30:54;;;;;;;10.30;6.30;;;8.20;82.90;;;;;;5079573;28;20672;-52
2021/03/16 05:33:21;;;;;;;8.47;5.90;;;8.30;82.20;;;;;;5071687;28;20650;-51
2021/03/16 05:35:48;;;;;;;15.07;4.93;;;8.30;83.10;;;;;;5071383;28;20651;-51
2021/03/16 05:38:16;;;;;;;11.13;6.00;;;8.40;82.20;;;;;;5081086;28;20650;-51
2021/03/16 05:40:42;;;;;;;12.90;6.37;;;8.40;82.10;;;;;;5081918;28;20653;-51
2021/03/16 05:43:10;;;;;;;6.17;5.50;;;8.40;82.20;;;;;;5079767;28;21252;-51
2021/03/16 05:45:37;;;;;;;9.53;6.20;;;8.40;82.30;;;;;;5091098;28;20684;-52
2021/03/16 05:48:06;;;;;;;11.33;6.33;;;8.40;82.90;;;;;;5078880;28;20668;-51
2021/03/16 05:50:33;;;;;;;10.93;5.93;;;8.40;82.80;;;;;;5084803;28;20691;-52
2021/03/16 05:52:59;;;;;;;10.97;6.77;;;8.40;83.00;;;;;;5091532;28;20623;-52
2021/03/16 05:55:27;;;;;;;8.30;5.47;;;8.40;83.00;;;;;;5091668;28;20655;-52
2021/03/16 05:57:54;;;;;;;11.40;6.83;;;8.50;83.20;;;;;;5091098;28;20627;-52
2021/03/16 06:00:21;;;;;;;11.10;6.10;;;8.50;83.00;;;;;;5091196;28;20691;-52
2021/03/16 06:02:49;;;;;;;6.60;5.87;;;8.50;82.70;;;;;;5091327;28;20664;-52
2021/03/16 06:05:16;;;;;;;10.80;6.00;;;8.60;82.80;;;;;;5091791;28;21065;-52
2021/03/16 06:07:47;;;;;;;17.93;6.50;;;8.50;82.70;;;;;;5090339;28;20965;-52
2021/03/16 06:10:16;;;;;;;7.80;6.10;;;8.60;83.00;;;;;;5086238;28;20697;-52
2021/03/16 06:12:44;;;;;;;14.23;8.47;;;8.60;82.90;;;;;;5091100;28;20656;-53
2021/03/16 06:15:11;;;;;;;8.43;5.60;;;8.60;82.60;;;;;;5073940;28;21055;-52
2021/03/16 06:17:43;;;;;;;12.30;6.07;;;8.50;82.90;;;;;;5079333;28;20651;-52
2021/03/16 06:20:11;;;;;;;14.00;7.30;;;8.50;83.30;;;;;;5095154;28;20705;-52
2021/03/16 06:22:38;;;;;;;9.13;5.00;;;8.50;83.50;;;;;;5095116;28;20663;-51
2021/03/16 06:25:06;;;;;;;6.60;5.33;;;8.50;83.60;;;;;;5094939;28;20680;-51
2021/03/16 06:27:32;;;;;;;9.80;6.30;;;8.40;83.90;;;;;;5095044;28;20685;-51
2021/03/16 06:30:00;;;;;;;8.27;5.30;;;8.40;84.90;;;;;;5094904;28;21216;-51
2021/03/16 06:32:34;;;;;;;6.97;5.13;;;8.30;85.30;;;;;;5095207;28;20675;-50
2021/03/16 06:35:01;;;;;;;11.07;6.00;;;8.20;86.00;;;;;;5110742;28;20658;-51
2021/03/16 06:37:27;;;;;;;7.50;6.30;;;8.20;86.70;;;;;;5094875;28;20715;-51
2021/03/16 06:39:57;;;;;;;5.87;4.73;;;8.30;87.00;;;;;;5094591;28;21032;-51
2021/03/16 06:42:26;;;;;;;8.33;5.67;;;8.30;86.90;;;;;;5095111;28;20624;-51
2021/03/16 06:45:04;;;;;;;8.80;5.17;;;8.20;87.10;;;;;;5094169;28;20652;-51
2021/03/16 06:47:31;;;;;;;10.03;5.20;;;8.20;87.60;;;;;;5094596;28;20630;-51
2021/03/16 06:49:57;;;;;;;10.33;6.13;;;8.20;87.70;;;;;;5094712;28;21190;-51
2021/03/16 06:52:26;;;;;;;8.80;6.10;;;8.30;88.40;;;;;;5094983;28;20646;-52
2021/03/16 06:54:53;;;;;;;8.57;5.40;;;8.40;87.30;;;;;;5092916;28;20619;-50
2021/03/16 06:57:24;;;;;;;7.50;5.23;;;8.40;86.30;;;;;;5095022;28;20662;-51
2021/03/16 06:59:50;;;;;;;8.40;5.60;;;8.50;86.30;;;;;;5094377;28;20795;-51
2021/03/16 07:02:18;;;;;;;9.60;4.73;;;8.50;86.10;;;;;;5094284;28;21221;-51
2021/03/16 07:04:45;;;;;;;13.17;6.63;;;8.50;85.60;;;;;;5094422;28;20691;-51
2021/03/16 07:07:12;;;;;;;10.47;5.33;;;8.50;86.20;;;;;;5094453;28;21253;-51
2021/03/16 07:09:39;;;;;;;11.03;6.80;;;8.60;86.30;;;;;;5093878;28;21198;-51
2021/03/16 07:12:07;;;;;;;8.40;6.10;;;8.60;86.30;;;;;;5093539;28;20624;-51
2021/03/16 07:14:35;;;;;;;15.63;7.63;;;8.60;86.10;;;;;;5093900;28;20672;-52
2021/03/16 07:17:02;;;;;;;9.00;5.20;;;8.60;86.40;;;;;;5094240;28;20632;-51
2021/03/16 07:19:30;;;;;;;12.83;5.90;;;8.60;86.30;;;;;;5093335;28;20642;-51
2021/03/16 07:21:58;;;;;;;10.70;5.47;;;8.70;87.00;;;;;;5094634;28;20624;-53
2021/03/16 07:24:25;;;;;;;11.03;7.03;;;8.70;86.50;;;;;;5093913;28;21015;-53
2021/03/16 07:26:53;;;;;;;16.00;7.40;;;8.80;85.80;;;;;;5092872;28;20663;-52
2021/03/16 07:29:20;;;;;;;11.73;6.57;;;8.80;85.60;;;;;;5093567;28;20648;-52
2021/03/16 07:31:47;;;;;;;12.47;6.77;;;8.80;85.20;;;;;;5090254;28;20721;-51
2021/03/16 07:34:18;;;;;;;17.67;6.83;;;8.80;85.20;;;;;;5073733;28;21011;-52
2021/03/16 07:36:46;;;;;;;12.43;5.70;;;8.90;85.80;;;;;;5073398;28;20644;-52
2021/03/16 07:39:18;;;;;;;17.13;6.50;;;9.00;83.60;;;;;;5073441;28;21007;-52
2021/03/16 07:41:45;;;;;;;9.63;5.83;;;9.00;83.40;;;;;;5088520;28;20684;-51
2021/03/16 07:44:12;;;;;;;16.83;6.17;;;9.00;82.70;;;;;;5092016;28;20977;-51
2021/03/16 07:46:41;;;;;;;8.67;5.50;;;9.00;82.20;;;;;;5093750;28;21060;-51
2021/03/16 07:49:07;;;;;;;12.53;6.87;;;9.10;82.50;;;;;;5092065;28;21220;-51
2021/03/16 07:51:34;;;;;;;10.10;6.20;;;9.00;82.00;;;;;;5093481;28;20687;-51
2021/03/16 07:54:03;;;;;;;11.07;6.00;;;9.10;82.30;;;;;;5085434;28;20671;-51
2021/03/16 07:56:31;;;;;;;12.57;7.60;;;9.10;82.10;;;;;;5083378;28;20649;-51
2021/03/16 07:58:58;;;;;;;10.00;5.67;;;9.20;82.30;;;;;;5083909;28;20653;-51
2021/03/16 08:01:25;;;;;;;10.03;5.10;;;9.10;82.10;;;;;;5082460;28;21057;-52
2021/03/16 08:03:55;;;;;;;12.27;5.87;;;9.00;82.50;;;;;;5082900;28;20649;-53
2021/03/16 08:06:23;;;;;;;13.57;7.90;;;8.90;82.00;;;;;;5074824;28;21075;-52
2021/03/16 08:08:50;;;;;;;17.37;6.90;;;8.90;83.00;;;;;;5080016;28;20670;-52
2021/03/16 08:11:17;;;;;;;11.70;7.33;;;8.80;82.50;;;;;;5092129;28;20690;-52
2021/03/16 08:13:54;;;;;;;10.00;6.27;;;8.80;82.60;;;;;;5084547;28;20674;-53
2021/03/16 08:16:32;;;;;;;7.87;5.70;;;8.80;82.90;;;;;;5072625;28;20652;-52
2021/03/16 08:19:08;;;;;;;9.60;6.20;;;8.90;83.00;;;;;;5081337;28;20681;-52
2021/03/16 08:21:35;;;;;;;10.20;5.87;;;8.90;82.60;;;;;;5092832;28;20706;-52
2021/03/16 08:24:04;;;;;;;7.63;6.23;;;8.90;83.10;;;;;;5092981;28;20651;-51
2021/03/16 08:26:31;;;;;;;15.23;6.13;;;9.00;83.10;;;;;;5091459;28;21308;-53
2021/03/16 08:28:58;;;;;;;11.67;6.00;;;9.10;82.00;;;;;;5091882;28;20628;-52
2021/03/16 08:31:25;;;;;;;8.23;6.30;;;9.10;81.20;;;;;;5091828;28;20708;-52
2021/03/16 08:33:52;;;;;;;10.17;6.53;;;9.10;81.70;;;;;;5092399;28;20944;-52
2021/03/16 08:36:19;;;;;;;8.70;5.90;;;9.20;82.10;;;;;;5090918;28;20627;-53
2021/03/16 08:38:45;;;;;;;7.57;5.73;;;9.20;80.30;;;;;;5092272;28;20663;-51
2021/03/16 08:41:16;;;;;;;9.77;6.67;;;9.20;80.70;;;;;;5089924;28;20712;-52
2021/03/16 08:43:47;;;;;;;10.90;5.90;;;9.20;80.10;;;;;;5091224;28;21220;-51
2021/03/16 08:46:14;;;;;;;14.90;7.33;;;9.20;79.80;;;;;;5090063;28;20688;-53
2021/03/16 08:48:42;;;;;;;8.27;5.93;;;9.20;79.50;;;;;;5091192;28;21045;-53
2021/03/16 08:51:08;;;;;;;13.80;6.03;;;9.20;79.00;;;;;;5092066;28;20707;-52
2021/03/16 08:53:35;;;;;;;13.07;7.13;;;9.20;79.50;;;;;;5091336;28;20670;-52
2021/03/16 08:56:02;;;;;;;6.63;5.60;;;9.20;79.10;;;;;;5091627;28;20658;-52
2021/03/16 08:58:29;;;;;;;9.67;7.30;;;9.20;80.20;;;;;;5091202;28;20655;-52
2021/03/16 09:00:57;;;;;;;10.90;7.10;;;9.10;79.80;;;;;;5091673;28;21046;-52
2021/03/16 09:03:28;;;;;;;13.27;7.20;;;9.10;80.40;;;;;;5091731;28;20660;-54
2021/03/16 09:05:55;;;;;;;9.80;7.43;;;9.10;80.50;;;;;;5091492;28;20691;-52
2021/03/16 09:08:22;;;;;;;17.00;7.93;;;9.10;80.80;;;;;;5085829;28;20656;-53
2021/03/16 09:10:49;;;;;;;9.33;6.20;;;9.10;81.30;;;;;;5091486;28;20672;-52
2021/03/16 09:13:25;;;;;;;7.30;6.10;;;9.10;80.90;;;;;;5091367;28;21191;-54
2021/03/16 09:15:52;;;;;;;11.37;6.13;;;9.10;81.40;;;;;;5091060;28;20628;-52
2021/03/16 09:18:20;;;;;;;10.90;6.93;;;9.00;81.20;;;;;;5091131;28;20643;-51
2021/03/16 09:20:47;;;;;;;8.70;5.33;;;9.00;82.80;;;;;;5080187;28;21414;-52
2021/03/16 09:23:14;;;;;;;12.33;5.63;;;9.00;81.40;;;;;;5091989;28;20678;-52
2021/03/16 09:25:42;;;;;;;9.20;7.30;;;8.90;81.10;;;;;;5098046;28;20683;-52
2021/03/16 09:28:10;;;;;;;11.97;5.60;;;9.00;81.20;;;;;;5091531;28;20651;-52
2021/03/16 09:30:38;;;;;;;12.37;5.97;;;9.00;80.20;;;;;;5088837;28;20702;-51
2021/03/16 09:33:05;;;;;;;9.93;5.60;;;8.90;79.90;;;;;;5090924;28;20648;-51
2021/03/16 09:35:33;;;;;;;12.00;6.00;;;8.90;80.20;;;;;;5088693;28;20655;-52
2021/03/16 09:38:04;;;;;;;10.13;6.87;;;9.00;80.80;;;;;;5070685;28;20633;-52
2021/03/16 09:40:32;;;;;;;9.70;6.87;;;9.10;82.10;;;;;;5082572;28;21076;-51
2021/03/16 09:43:00;;;;;;;12.13;7.10;;;9.10;83.10;;;;;;5090347;28;20620;-51
2021/03/16 09:45:27;;;;;;;11.23;6.07;;;9.10;83.90;;;;;;5090573;28;21244;-52
2021/03/16 09:47:54;;;;;;;12.87;6.53;;;9.10;83.80;;;;;;5089895;28;20683;-54
2021/03/16 09:50:22;;;;;;;7.97;5.87;;;9.20;84.00;;;;;;5090089;28;21220;-52
2021/03/16 09:52:57;;;;;;;7.03;5.90;;;9.30;82.80;;;;;;5090766;28;20774;-51
2021/03/16 09:55:24;;;;;;;9.77;6.63;;;9.50;82.00;;;;;;5090858;28;20662;-51
2021/03/16 09:57:51;;;;;;;12.70;6.27;;;9.60;81.70;;;;;;5090184;28;20662;-51
2021/03/16 10:00:19;;;;;;;6.97;4.97;;;9.90;81.00;;;;;;5090746;28;20699;-53
2021/03/16 10:02:46;;;;;;;7.37;5.00;;;10.10;77.60;;;;;;5091404;28;20685;-51
2021/03/16 10:05:13;;;;;;;7.53;5.33;;;10.20;76.30;;;;;;5091646;28;21169;-52
2021/03/16 10:07:40;;;;;;;9.43;5.90;;;10.20;76.20;;;;;;5080281;28;20670;-52
2021/03/16 10:10:13;;;;;;;10.70;6.00;;;10.20;75.60;;;;;;5070560;28;20688;-52
2021/03/16 10:12:40;;;;;;;6.17;4.27;;;10.30;75.50;;;;;;5077544;28;21165;-51
2021/03/16 10:15:07;;;;;;;9.53;5.43;;;10.30;75.50;;;;;;5090456;28;20655;-51
2021/03/16 10:17:34;;;;;;;7.50;5.17;;;10.30;76.00;;;;;;5091048;28;20722;-51
2021/03/16 10:20:03;;;;;;;13.10;5.73;;;10.40;74.30;;;;;;5088827;28;20668;-51
2021/03/16 10:22:30;;;;;;;9.03;4.97;;;10.30;73.10;;;;;;5073007;28;20625;-51
2021/03/16 10:24:58;;;;;;;9.73;5.70;;;10.30;72.80;;;;;;5070598;28;20644;-51
2021/03/16 10:27:29;;;;;;;9.30;5.20;;;10.20;72.80;;;;;;5070422;28;20826;-50
2021/03/16 10:29:56;;;;;;;9.43;5.80;;;10.10;72.70;;;;;;5070754;28;21237;-51
2021/03/16 10:32:23;;;;;;;6.93;4.73;;;10.10;73.10;;;;;;5088656;28;21200;-51
2021/03/16 10:34:50;;;;;;;6.70;4.37;;;10.10;73.60;;;;;;5090771;28;20671;-52
2021/03/16 10:37:18;;;;;;;12.93;6.50;;;10.20;72.40;;;;;;5090973;28;20742;-51
2021/03/16 10:39:45;;;;;;;10.63;5.37;;;10.10;71.80;;;;;;5090637;28;20676;-52
2021/03/16 10:42:12;;;;;;;17.30;5.13;;;10.10;71.80;;;;;;5090542;28;20663;-52
2021/03/16 10:44:40;;;;;;;9.30;5.57;;;10.20;73.10;;;;;;5090475;28;20652;-52
2021/03/16 10:47:07;;;;;;;9.70;5.27;;;10.20;72.30;;;;;;5090833;28;20682;-51
2021/03/16 10:49:34;;;;;;;7.23;4.67;;;10.10;70.20;;;;;;5093493;28;20624;-50
2021/03/16 10:52:01;;;;;;;8.60;5.10;;;10.10;70.90;;;;;;5090604;28;20659;-52
2021/03/16 10:54:27;;;;;;;6.83;5.30;;;10.10;70.70;;;;;;5077459;28;21166;-52
2021/03/16 10:56:55;;;;;;;15.10;5.13;;;10.20;70.90;;;;;;5070150;28;20653;-49
2021/03/16 10:59:22;;;;;;;11.07;5.10;;;10.10;69.20;;;;;;5079905;28;20624;-50
2021/03/16 11:01:50;;;;;;;13.67;5.60;;;10.10;67.00;;;;;;5094772;28;20647;-51
2021/03/16 11:04:17;;;;;;;4.87;4.40;;;10.10;67.10;;;;;;5094103;28;20632;-51
2021/03/16 11:06:44;;;;;;;14.10;5.93;;;10.10;67.20;;;;;;5077577;28;20692;-51
2021/03/16 11:09:12;;;;;;;7.57;5.23;;;10.20;67.00;;;;;;5094099;28;20704;-51
2021/03/16 11:11:39;;;;;;;13.03;5.20;;;10.30;67.10;;;;;;5077779;28;21067;-51
2021/03/16 11:14:05;;;;;;;8.93;5.83;;;10.30;66.90;;;;;;5091874;28;20663;-51
2021/03/16 11:16:33;;;;;;;11.63;7.03;;;10.40;68.20;;;;;;5094037;28;20643;-51
2021/03/16 11:19:00;;;;;;;11.53;6.40;;;10.40;70.10;;;;;;5093400;28;20648;-51
2021/03/16 11:21:27;;;;;;;7.97;5.20;;;10.50;67.70;;;;;;5093574;28;20692;-52
2021/03/16 11:23:54;;;;;;;5.37;4.50;;;10.50;67.30;;;;;;5093610;28;20660;-51
2021/03/16 11:26:21;;;;;;;12.53;4.90;;;10.40;66.70;;;;;;5093104;28;20709;-51
2021/03/16 11:28:48;;;;;;;9.73;5.20;;;10.40;66.60;;;;;;5093675;28;20744;-52
2021/03/16 11:31:14;;;;;;;7.27;5.63;;;10.30;66.90;;;;;;5093210;28;20663;-51
2021/03/16 11:33:41;;;;;;;13.63;5.57;;;10.30;67.40;;;;;;5093002;28;20627;-52
2021/03/16 11:36:09;;;;;;;7.37;5.80;;;10.30;67.70;;;;;;5092997;28;20616;-50
2021/03/16 11:38:36;;;;;;;7.57;4.90;;;10.30;66.80;;;;;;5093308;28;20723;-51
2021/03/16 11:41:02;;;;;;;7.00;4.50;;;10.30;66.20;;;;;;5092635;28;20644;-51
2021/03/16 11:43:29;;;;;;;7.07;4.60;;;10.30;65.30;;;;;;5072859;28;20617;-52
2021/03/16 11:45:56;;;;;;;5.10;4.60;;;10.40;67.10;;;;;;5072836;28;21143;-51
2021/03/16 11:48:23;;;;;;;5.80;4.27;;;11.00;65.30;;;;;;5072640;28;20659;-51
2021/03/16 11:50:50;;;;;;;8.70;4.30;;;11.90;61.00;;;;;;5088881;28;20699;-52
2021/03/16 11:53:17;;;;;;;5.20;3.40;;;12.20;58.70;;;;;;5092888;28;20672;-51
2021/03/16 11:55:44;;;;;;;4.93;3.30;;;12.20;57.40;;;;;;5092495;28;20632;-52
2021/03/16 11:58:11;;;;;;;3.80;2.93;;;12.10;56.60;;;;;;5093396;28;20632;-52
2021/03/16 12:00:38;;;;;;;8.10;3.23;;;11.80;56.80;;;;;;5093086;28;20679;-53
2021/03/16 12:03:05;;;;;;;11.03;4.37;;;11.60;57.50;;;;;;5092793;28;20653;-52
2021/03/16 12:05:32;;;;;;;8.10;3.30;;;11.40;58.20;;;;;;5093395;28;20624;-51
2021/03/16 12:07:59;;;;;;;4.20;2.50;;;11.40;58.40;;;;;;5086071;28;21192;-51
2021/03/16 12:10:26;;;;;;;7.13;4.00;;;11.30;57.10;;;;;;5087091;28;20724;-51
2021/03/16 12:12:53;;;;;;;5.20;2.83;;;11.10;57.60;;;;;;5091411;28;20658;-51
2021/03/16 12:15:20;;;;;;;10.77;3.60;;;11.20;58.40;;;;;;5092617;28;20664;-51
2021/03/16 12:17:47;;;;;;;4.53;2.83;;;11.30;58.30;;;;;;5091721;28;21181;-53
2021/03/16 12:20:15;;;;;;;6.70;3.30;;;11.40;58.10;;;;;;5092272;28;20687;-52
2021/03/16 12:22:41;;;;;;;3.23;2.57;;;11.50;57.90;;;;;;5092365;28;20652;-52
2021/03/16 12:25:09;;;;;;;4.70;3.50;;;11.70;56.60;;;;;;5092385;28;20648;-52
2021/03/16 12:27:37;;;;;;;6.50;3.23;;;11.80;56.40;;;;;;5092097;28;21085;-50
2021/03/16 12:30:05;;;;;;;3.13;2.40;;;11.70;55.50;;;;;;5092308;28;21247;-50
2021/03/16 12:32:32;;;;;;;8.93;3.00;;;11.50;55.50;;;;;;5092650;28;21319;-51
2021/03/16 12:34:59;;;;;;;10.47;3.70;;;11.30;55.90;;;;;;5090756;28;20624;-51
2021/03/16 12:37:25;;;;;;;6.63;3.70;;;11.20;57.20;;;;;;5085990;28;20644;-51
2021/03/16 12:39:52;;;;;;;4.97;2.70;;;11.10;57.10;;;;;;5077801;28;20698;-50
2021/03/16 12:42:19;;;;;;;4.90;3.40;;;11.00;57.30;;;;;;5092176;28;20656;-52
2021/03/16 12:44:47;;;;;;;8.20;3.47;;;11.10;58.10;;;;;;5092017;28;20656;-51
2021/03/16 12:47:13;;;;;;;3.23;2.00;;;11.10;56.80;;;;;;5091339;28;21242;-52
2021/03/16 12:49:40;;;;;;;3.40;2.33;;;11.10;56.60;;;;;;5091539;28;21177;-51
2021/03/16 12:52:07;;;;;;;2.13;1.43;;;11.00;56.60;;;;;;5091986;28;20681;-52